Time;durP1;ratioP1;P1;durP2;ratioP2;P2;SDS_P1;SDS_P2;PMS_P1;PMS_P2;Temp;Humidity;BMP_temperature;BMP_pressure;BME280_temperature;BME280_humidity;BME280_pressure;Samples;Min_cycle;Max_cycle;Signal;HPM_P1;HPM_P2
2023/09/06 00:01:59;;;;;;;5.07;4.57;;;14.90;99.80;;;;;;5084417;28;21012;-76
2023/09/06 00:04:26;;;;;;;4.83;3.83;;;14.90;99.90;;;;;;5085427;28;20632;-75
2023/09/06 00:06:53;;;;;;;5.57;3.87;;;14.90;99.90;;;;;;5086667;28;20636;-75
2023/09/06 00:09:20;;;;;;;5.23;3.80;;;14.90;99.70;;;;;;5088878;28;20648;-75
2023/09/06 00:11:47;;;;;;;4.70;3.90;;;14.90;99.70;;;;;;5088861;28;21246;-75
2023/09/06 00:14:14;;;;;;;4.67;3.77;;;14.90;99.40;;;;;;5090245;28;21036;-75
2023/09/06 00:16:42;;;;;;;4.60;4.10;;;14.90;99.20;;;;;;5089370;28;20644;-75
2023/09/06 00:19:09;;;;;;;4.27;3.67;;;14.90;99.10;;;;;;5090296;28;21005;-75
2023/09/06 00:21:40;;;;;;;4.80;3.60;;;14.80;98.70;;;;;;5088605;28;20653;-75
2023/09/06 00:24:07;;;;;;;5.80;3.43;;;14.80;99.10;;;;;;5089138;28;20628;-75
2023/09/06 00:26:34;;;;;;;4.13;3.63;;;14.80;99.30;;;;;;5088427;28;20624;-75
2023/09/06 00:29:01;;;;;;;4.00;3.63;;;14.70;98.40;;;;;;5089188;28;21248;-75
2023/09/06 00:31:28;;;;;;;5.37;4.10;;;14.70;98.60;;;;;;5088660;28;21178;-75
2023/09/06 00:33:56;;;;;;;5.60;4.27;;;14.60;99.40;;;;;;5089445;28;20689;-75
2023/09/06 00:36:23;;;;;;;5.73;4.40;;;14.50;99.60;;;;;;5089093;28;20628;-75
2023/09/06 00:38:50;;;;;;;6.20;4.30;;;14.60;99.50;;;;;;5088329;28;20661;-75
2023/09/06 00:41:16;;;;;;;5.33;4.30;;;14.50;98.90;;;;;;5089136;28;20656;-75
2023/09/06 00:43:43;;;;;;;4.47;3.93;;;14.50;98.90;;;;;;5088268;28;20636;-75
2023/09/06 00:46:10;;;;;;;4.73;4.00;;;14.50;99.10;;;;;;5088781;28;20628;-74
2023/09/06 00:48:37;;;;;;;5.80;4.47;;;14.40;99.40;;;;;;5088303;28;20631;-75
2023/09/06 00:51:07;;;;;;;5.73;3.77;;;14.40;99.70;;;;;;5088222;28;21220;-75
2023/09/06 00:53:34;;;;;;;5.00;4.47;;;14.40;99.90;;;;;;5088996;28;21401;-75
2023/09/06 00:56:03;;;;;;;5.03;4.53;;;14.40;99.90;;;;;;5088397;28;20632;-75
2023/09/06 00:58:32;;;;;;;4.80;4.30;;;14.20;99.90;;;;;;5088046;28;20641;-75
2023/09/06 01:00:58;;;;;;;4.00;3.60;;;14.20;99.90;;;;;;5087175;28;20767;-74
2023/09/06 01:03:25;;;;;;;3.83;3.53;;;14.20;99.90;;;;;;5087441;28;20628;-74
2023/09/06 01:06:01;;;;;;;5.30;4.80;;;14.20;99.90;;;;;;5089584;28;20636;-75
2023/09/06 01:08:37;;;;;;;7.40;4.83;;;14.20;99.90;;;;;;5087849;28;21076;-74
2023/09/06 01:11:18;;;;;;;4.43;4.00;;;14.20;98.90;;;;;;5087228;28;20655;-75
2023/09/06 01:13:51;;;;;;;5.67;4.43;;;14.10;99.20;;;;;;5088567;28;20634;-75
2023/09/06 01:16:23;;;;;;;4.73;4.33;;;14.20;99.10;;;;;;5088413;28;21599;-75
2023/09/06 01:18:52;;;;;;;4.93;4.43;;;14.20;98.70;;;;;;5089197;28;20639;-74
2023/09/06 01:21:24;;;;;;;5.73;4.33;;;14.20;98.80;;;;;;5087735;28;20751;-75
2023/09/06 01:23:55;;;;;;;4.93;4.43;;;14.20;98.80;;;;;;5087023;28;21203;-75
2023/09/06 01:26:23;;;;;;;4.90;4.10;;;14.20;98.70;;;;;;5088310;28;20624;-75
2023/09/06 01:28:51;;;;;;;4.83;4.03;;;14.20;98.60;;;;;;5088392;28;21234;-75
2023/09/06 01:31:19;;;;;;;5.27;4.77;;;14.20;98.40;;;;;;5087113;28;20709;-75
2023/09/06 01:33:47;;;;;;;6.63;4.33;;;14.30;98.10;;;;;;5087886;28;20623;-75
2023/09/06 01:36:14;;;;;;;4.33;3.93;;;14.30;98.10;;;;;;5087789;28;20645;-75
2023/09/06 01:38:42;;;;;;;4.17;3.77;;;14.20;98.10;;;;;;5087658;28;20632;-75
2023/09/06 01:41:12;;;;;;;4.33;3.73;;;14.20;98.10;;;;;;5087139;28;21057;-75
2023/09/06 01:43:40;;;;;;;4.93;4.37;;;14.20;98.10;;;;;;5086978;28;20934;-75
2023/09/06 01:46:08;;;;;;;3.90;3.53;;;14.20;98.70;;;;;;5087879;28;20685;-75
2023/09/06 01:48:39;;;;;;;5.30;3.90;;;14.10;98.40;;;;;;5087684;28;20624;-75
2023/09/06 01:51:08;;;;;;;5.87;4.33;;;14.10;98.90;;;;;;5086735;28;20617;-75
2023/09/06 01:53:35;;;;;;;3.93;3.50;;;14.20;98.30;;;;;;5088105;28;21251;-75
2023/09/06 01:56:02;;;;;;;3.50;3.10;;;14.20;98.10;;;;;;5088051;28;20630;-75
2023/09/06 01:58:32;;;;;;;5.93;4.47;;;14.20;98.10;;;;;;5086995;28;20732;-75
2023/09/06 02:00:59;;;;;;;6.40;3.90;;;14.20;98.20;;;;;;5086745;28;20660;-75
2023/09/06 02:03:27;;;;;;;5.57;4.30;;;14.30;98.30;;;;;;5087477;28;20966;-75
2023/09/06 02:05:53;;;;;;;5.77;4.33;;;14.30;99.10;;;;;;5087913;28;20763;-75
2023/09/06 02:08:21;;;;;;;3.63;3.33;;;14.10;99.00;;;;;;5087159;28;20631;-75
2023/09/06 02:10:49;;;;;;;5.83;4.23;;;14.00;99.30;;;;;;5087100;28;20625;-75
2023/09/06 02:13:16;;;;;;;5.70;3.53;;;13.90;99.50;;;;;;5086989;28;20616;-75
2023/09/06 02:15:45;;;;;;;6.03;3.53;;;13.90;99.90;;;;;;5087242;28;20714;-75
2023/09/06 02:18:15;;;;;;;4.63;3.43;;;13.90;99.90;;;;;;5087166;28;20730;-75
2023/09/06 02:20:44;;;;;;;4.17;3.20;;;13.90;99.80;;;;;;5086218;28;20709;-75
2023/09/06 02:23:12;;;;;;;4.70;3.90;;;13.90;99.90;;;;;;5087377;28;20750;-75
2023/09/06 02:25:40;;;;;;;4.97;4.10;;;13.80;99.40;;;;;;5087149;28;20624;-75
2023/09/06 02:28:08;;;;;;;4.30;3.57;;;13.80;98.90;;;;;;5086829;28;20655;-75
2023/09/06 02:30:37;;;;;;;5.13;4.23;;;13.70;99.00;;;;;;5085230;28;20634;-75
2023/09/06 02:33:07;;;;;;;6.73;5.10;;;13.70;99.90;;;;;;5086561;28;20666;-75
2023/09/06 02:35:40;;;;;;;5.93;4.67;;;13.60;99.90;;;;;;5087366;28;21283;-75
2023/09/06 02:38:08;;;;;;;5.77;4.27;;;13.50;99.90;;;;;;5087142;28;21184;-75
2023/09/06 02:40:35;;;;;;;3.70;3.40;;;13.40;99.90;;;;;;5086297;28;21227;-75
2023/09/06 02:43:04;;;;;;;5.90;4.27;;;13.40;99.90;;;;;;5085539;28;20636;-75
2023/09/06 02:45:37;;;;;;;5.47;3.43;;;13.40;99.90;;;;;;5086286;28;20629;-75
2023/09/06 02:48:07;;;;;;;5.30;3.80;;;13.40;99.90;;;;;;5086619;28;21772;-75
2023/09/06 02:50:36;;;;;;;5.53;4.47;;;13.40;99.90;;;;;;5086110;28;20718;-75
2023/09/06 02:53:03;;;;;;;5.47;3.60;;;13.40;99.90;;;;;;5087103;28;20632;-75
2023/09/06 02:55:33;;;;;;;5.27;3.47;;;13.40;99.90;;;;;;5086527;28;20710;-75
2023/09/06 02:57:59;;;;;;;9.70;4.13;;;13.40;99.90;;;;;;5085508;28;20632;-75
2023/09/06 03:00:27;;;;;;;6.33;4.07;;;13.30;99.90;;;;;;5085476;28;20640;-75
2023/09/06 03:02:58;;;;;;;4.93;3.80;;;13.30;99.90;;;;;;5085991;28;20659;-75
2023/09/06 03:05:27;;;;;;;5.03;3.90;;;13.30;99.90;;;;;;5086176;28;20716;-75
2023/09/06 03:07:55;;;;;;;4.90;3.90;;;13.30;99.90;;;;;;5085902;28;20659;-75
2023/09/06 03:10:23;;;;;;;5.00;3.60;;;13.30;99.90;;;;;;5085420;28;20632;-75
2023/09/06 03:12:55;;;;;;;4.13;3.67;;;13.30;99.90;;;;;;5086410;28;21693;-75
2023/09/06 03:15:22;;;;;;;4.53;4.10;;;13.30;99.90;;;;;;5085111;28;20860;-75
2023/09/06 03:17:49;;;;;;;4.70;3.73;;;13.30;99.90;;;;;;5085582;28;20624;-75
2023/09/06 03:20:31;;;;;;;3.77;3.30;;;13.30;99.90;;;;;;5085124;28;20628;-75
2023/09/06 03:23:01;;;;;;;3.93;3.07;;;13.30;99.90;;;;;;5085229;28;20649;-75
2023/09/06 03:25:28;;;;;;;5.30;3.77;;;13.30;99.90;;;;;;5086839;28;20625;-75
2023/09/06 03:28:00;;;;;;;4.30;3.57;;;13.20;99.90;;;;;;5085626;28;21020;-75
2023/09/06 03:30:29;;;;;;;3.80;3.50;;;13.20;99.90;;;;;;5084722;28;20625;-75
2023/09/06 03:32:56;;;;;;;4.40;4.00;;;13.20;99.90;;;;;;5085165;28;20621;-75
2023/09/06 03:35:23;;;;;;;3.83;3.50;;;13.20;99.90;;;;;;5086078;28;20631;-75
2023/09/06 03:37:50;;;;;;;6.00;4.00;;;13.20;99.90;;;;;;5085913;28;20965;-75
2023/09/06 03:40:28;;;;;;;3.10;2.80;;;13.10;99.90;;;;;;5085117;28;21137;-75
2023/09/06 03:42:59;;;;;;;4.00;3.60;;;13.20;99.90;;;;;;5083072;28;20662;-75
2023/09/06 03:45:27;;;;;;;4.07;3.70;;;13.20;99.90;;;;;;5085956;28;21053;-75
2023/09/06 03:47:54;;;;;;;5.63;3.87;;;13.20;99.90;;;;;;5084927;28;20693;-75
2023/09/06 03:50:23;;;;;;;3.90;3.53;;;13.00;99.90;;;;;;5085812;28;20631;-75
2023/09/06 03:52:50;;;;;;;5.03;4.53;;;13.00;99.90;;;;;;5085508;28;20624;-75
2023/09/06 03:55:24;;;;;;;4.40;4.00;;;12.90;99.90;;;;;;5085775;28;20635;-75
2023/09/06 03:57:52;;;;;;;4.40;3.97;;;12.80;99.90;;;;;;5085074;28;20978;-75
2023/09/06 04:00:26;;;;;;;4.43;4.03;;;12.80;99.90;;;;;;5085219;28;21033;-75
2023/09/06 04:02:54;;;;;;;4.73;3.67;;;12.80;99.90;;;;;;5085907;28;21469;-75
2023/09/06 04:05:26;;;;;;;5.57;4.40;;;12.70;99.90;;;;;;5084138;28;20663;-75
2023/09/06 04:07:56;;;;;;;4.87;4.17;;;12.70;99.90;;;;;;5085428;28;21267;-75
2023/09/06 04:10:27;;;;;;;4.90;4.40;;;12.70;99.90;;;;;;5084548;28;20639;-75
2023/09/06 04:12:55;;;;;;;4.60;4.10;;;12.70;99.90;;;;;;5085117;28;21000;-75
2023/09/06 04:15:22;;;;;;;5.50;3.53;;;12.70;99.90;;;;;;5085845;28;20788;-75
2023/09/06 04:17:58;;;;;;;5.03;4.43;;;12.70;99.90;;;;;;5085472;28;20632;-75
2023/09/06 04:20:27;;;;;;;5.70;4.37;;;12.60;99.90;;;;;;5084285;28;21127;-75
2023/09/06 04:22:54;;;;;;;4.90;4.40;;;12.60;99.90;;;;;;5085501;28;20628;-75
2023/09/06 04:25:22;;;;;;;4.83;4.40;;;12.60;99.90;;;;;;5084927;28;20884;-75
2023/09/06 04:27:54;;;;;;;5.40;4.03;;;12.60;99.90;;;;;;5084548;28;20747;-75
2023/09/06 04:30:24;;;;;;;6.33;4.83;;;12.60;99.90;;;;;;5085036;28;20633;-75
2023/09/06 04:32:52;;;;;;;4.90;4.40;;;12.50;99.90;;;;;;5084737;28;20652;-75
2023/09/06 04:35:19;;;;;;;6.00;4.83;;;12.50;99.90;;;;;;5086185;28;20624;-75
2023/09/06 04:37:46;;;;;;;7.70;5.50;;;12.50;99.90;;;;;;5085156;28;20747;-75
2023/09/06 04:40:14;;;;;;;4.30;3.90;;;12.60;99.90;;;;;;5085175;28;20651;-75
2023/09/06 04:42:41;;;;;;;5.33;4.77;;;12.60;99.90;;;;;;5084853;28;20628;-75
2023/09/06 04:45:11;;;;;;;4.67;3.80;;;12.50;99.90;;;;;;5084143;28;20629;-75
2023/09/06 04:47:39;;;;;;;6.70;5.20;;;12.60;99.90;;;;;;5085291;28;20634;-75
2023/09/06 04:50:07;;;;;;;5.37;3.87;;;12.40;99.90;;;;;;5084306;28;20625;-75
2023/09/06 04:52:37;;;;;;;4.27;3.87;;;12.40;99.90;;;;;;5085312;28;20743;-75
2023/09/06 04:55:07;;;;;;;5.00;4.50;;;12.40;99.90;;;;;;5088999;28;20632;-74
2023/09/06 04:57:36;;;;;;;6.53;4.10;;;12.40;99.90;;;;;;5088379;28;20735;-75
2023/09/06 05:00:10;;;;;;;5.37;4.07;;;12.40;99.90;;;;;;5088787;28;20644;-75
2023/09/06 05:02:38;;;;;;;9.70;5.43;;;12.40;99.90;;;;;;5088503;28;20620;-75
2023/09/06 05:05:05;;;;;;;6.07;4.40;;;12.40;99.90;;;;;;5084107;28;20625;-75
2023/09/06 05:07:32;;;;;;;4.47;4.07;;;12.40;99.90;;;;;;5088074;28;20770;-75
2023/09/06 05:09:59;;;;;;;4.60;4.07;;;12.40;99.90;;;;;;5087822;28;21754;-75
2023/09/06 05:12:26;;;;;;;4.37;3.97;;;12.50;99.90;;;;;;5087055;28;20644;-75
2023/09/06 05:14:54;;;;;;;7.50;5.30;;;12.40;99.90;;;;;;5088451;28;20662;-75
2023/09/06 05:17:21;;;;;;;7.40;4.77;;;12.40;99.90;;;;;;5088297;28;21239;-75
2023/09/06 05:19:52;;;;;;;7.47;4.47;;;12.40;99.90;;;;;;5087001;28;20666;-75
2023/09/06 05:22:19;;;;;;;6.67;4.40;;;12.40;99.90;;;;;;5087793;28;20642;-74
2023/09/06 05:24:46;;;;;;;6.10;4.50;;;12.40;99.90;;;;;;5087164;28;21877;-75
2023/09/06 05:27:14;;;;;;;6.07;4.30;;;12.50;99.90;;;;;;5087540;28;21292;-75
2023/09/06 05:29:41;;;;;;;4.27;3.80;;;12.50;99.90;;;;;;5083331;28;20622;-75
2023/09/06 05:32:07;;;;;;;9.07;6.10;;;12.60;99.90;;;;;;5086960;28;21243;-74
2023/09/06 05:34:34;;;;;;;8.93;5.40;;;12.60;99.90;;;;;;5086868;28;21167;-75
2023/09/06 05:37:03;;;;;;;6.90;5.20;;;12.60;99.90;;;;;;5087039;28;20625;-74
2023/09/06 05:39:30;;;;;;;7.77;5.20;;;12.80;99.90;;;;;;5086743;28;20612;-75
2023/09/06 05:41:57;;;;;;;7.77;5.47;;;12.80;99.90;;;;;;5084149;28;20672;-75
2023/09/06 05:44:24;;;;;;;5.97;4.83;;;12.90;99.90;;;;;;5086695;28;20638;-74
2023/09/06 05:46:51;;;;;;;4.40;4.00;;;12.90;99.90;;;;;;5081299;28;20860;-74
2023/09/06 05:49:17;;;;;;;5.03;4.47;;;13.00;99.90;;;;;;5084010;28;20636;-74
2023/09/06 05:51:44;;;;;;;5.27;4.80;;;13.10;99.90;;;;;;5086358;28;20635;-74
2023/09/06 05:54:12;;;;;;;4.93;4.30;;;13.10;99.90;;;;;;5087211;28;21261;-74
2023/09/06 05:56:39;;;;;;;6.17;4.97;;;13.20;99.90;;;;;;5087473;28;20636;-74
2023/09/06 05:59:06;;;;;;;7.03;5.03;;;13.30;99.90;;;;;;5083979;28;20641;-73
2023/09/06 06:01:33;;;;;;;4.90;4.27;;;13.40;99.90;;;;;;5085487;28;20637;-74
2023/09/06 06:04:00;;;;;;;6.20;4.90;;;13.50;99.90;;;;;;5085298;28;20636;-75
2023/09/06 06:06:29;;;;;;;5.40;4.80;;;13.70;99.90;;;;;;5086778;28;20628;-76
2023/09/06 06:08:56;;;;;;;6.40;5.70;;;13.80;99.90;;;;;;5081091;28;20646;-76
2023/09/06 06:11:25;;;;;;;5.87;4.20;;;13.90;99.90;;;;;;5086057;28;20625;-74
2023/09/06 06:13:51;;;;;;;6.87;5.13;;;14.00;99.90;;;;;;5085054;28;20732;-74
2023/09/06 06:16:18;;;;;;;5.13;4.27;;;14.00;99.90;;;;;;5085679;28;20628;-74
2023/09/06 06:18:47;;;;;;;7.10;5.17;;;14.20;99.90;;;;;;5087228;28;21070;-74
2023/09/06 06:21:14;;;;;;;5.57;4.60;;;14.30;99.90;;;;;;5085523;28;20621;-74
2023/09/06 06:23:43;;;;;;;9.30;5.10;;;14.40;99.90;;;;;;5085318;28;21067;-74
2023/09/06 06:26:10;;;;;;;6.93;5.30;;;14.50;99.90;;;;;;5085899;28;20663;-75
2023/09/06 06:28:38;;;;;;;7.07;5.40;;;14.70;99.90;;;;;;5086755;28;21215;-74
2023/09/06 06:31:05;;;;;;;6.63;5.47;;;14.80;99.90;;;;;;5086513;28;20626;-74
2023/09/06 06:33:33;;;;;;;5.23;4.53;;;15.10;99.90;;;;;;5086400;28;20669;-74
2023/09/06 06:35:59;;;;;;;8.60;6.80;;;15.20;99.90;;;;;;5086368;28;20841;-75
2023/09/06 06:38:26;;;;;;;6.40;5.37;;;15.40;99.90;;;;;;5085864;28;20626;-75
2023/09/06 06:40:54;;;;;;;6.50;5.30;;;15.70;99.90;;;;;;5081903;28;20628;-75
2023/09/06 06:43:21;;;;;;;6.53;5.57;;;15.90;99.90;;;;;;5085120;28;20658;-75
2023/09/06 06:45:54;;;;;;;8.10;5.27;;;15.90;99.90;;;;;;5081485;28;20636;-74
2023/09/06 06:48:21;;;;;;;5.37;4.40;;;16.00;99.90;;;;;;5083947;28;21775;-75
2023/09/06 06:50:49;;;;;;;4.17;3.80;;;16.00;99.20;;;;;;5082483;28;20671;-75
2023/09/06 06:53:15;;;;;;;10.27;6.07;;;16.20;99.10;;;;;;5084198;28;21052;-74
2023/09/06 06:55:42;;;;;;;5.20;4.70;;;16.30;98.30;;;;;;5084780;28;21239;-74
2023/09/06 06:58:09;;;;;;;7.47;4.47;;;16.50;98.20;;;;;;5084526;28;20736;-75
2023/09/06 07:00:36;;;;;;;6.00;4.40;;;16.60;98.60;;;;;;5084861;28;20624;-75
2023/09/06 07:03:08;;;;;;;6.60;5.17;;;16.90;98.30;;;;;;5084298;28;21133;-75
2023/09/06 07:05:35;;;;;;;6.93;4.13;;;17.00;98.00;;;;;;5085620;28;21231;-75
2023/09/06 07:08:04;;;;;;;4.80;4.23;;;17.20;97.40;;;;;;5084343;28;20654;-76
2023/09/06 07:10:31;;;;;;;5.93;4.73;;;17.20;97.60;;;;;;5084370;28;20728;-75
2023/09/06 07:12:58;;;;;;;6.97;3.43;;;17.30;97.60;;;;;;5083934;28;20838;-74
2023/09/06 07:15:25;;;;;;;6.13;4.73;;;17.40;97.40;;;;;;5085139;28;20629;-75
2023/09/06 07:17:51;;;;;;;4.83;4.33;;;17.30;96.50;;;;;;5084800;28;21006;-75
2023/09/06 07:20:20;;;;;;;6.27;5.27;;;17.50;96.80;;;;;;5083415;28;20719;-76
2023/09/06 07:22:46;;;;;;;4.57;4.10;;;17.70;96.60;;;;;;5080577;28;20656;-76
2023/09/06 07:25:13;;;;;;;5.07;4.57;;;17.70;96.40;;;;;;5084102;28;20633;-75
2023/09/06 07:27:46;;;;;;;6.17;4.77;;;17.80;95.80;;;;;;5084384;28;20639;-75
2023/09/06 07:30:15;;;;;;;5.77;5.07;;;18.10;95.40;;;;;;5084021;28;21195;-75
2023/09/06 07:32:42;;;;;;;5.10;4.60;;;18.20;95.30;;;;;;5082199;28;21488;-75
2023/09/06 07:35:09;;;;;;;4.97;4.50;;;18.40;94.90;;;;;;5083736;28;20631;-76
2023/09/06 07:37:37;;;;;;;5.57;4.33;;;18.40;94.70;;;;;;5083949;28;21290;-75
2023/09/06 07:40:06;;;;;;;6.30;4.30;;;18.50;95.10;;;;;;5084789;28;20979;-75
2023/09/06 07:42:37;;;;;;;5.63;4.03;;;18.60;95.00;;;;;;5083581;28;20997;-75
2023/09/06 07:45:05;;;;;;;5.37;4.87;;;18.60;94.70;;;;;;5084124;28;20639;-75
2023/09/06 07:47:34;;;;;;;4.90;4.40;;;18.50;94.50;;;;;;5084250;28;21246;-75
2023/09/06 07:50:00;;;;;;;5.40;4.40;;;18.80;94.70;;;;;;5083557;28;20780;-75
2023/09/06 07:52:27;;;;;;;6.43;3.73;;;18.90;94.60;;;;;;5084325;28;20639;-74
2023/09/06 07:54:55;;;;;;;4.40;4.00;;;19.00;94.00;;;;;;5083893;28;20636;-74
2023/09/06 07:57:22;;;;;;;4.77;3.70;;;18.90;93.70;;;;;;5083469;28;21677;-74
2023/09/06 07:59:49;;;;;;;6.97;4.60;;;19.10;94.00;;;;;;5080854;28;20627;-74
2023/09/06 08:02:16;;;;;;;8.23;4.87;;;19.10;94.40;;;;;;5082649;28;20615;-73
2023/09/06 08:04:42;;;;;;;5.37;4.30;;;19.10;94.10;;;;;;5084431;28;20635;-74
2023/09/06 08:07:09;;;;;;;5.57;5.00;;;19.40;94.20;;;;;;5082249;28;21002;-74
2023/09/06 08:09:37;;;;;;;6.20;5.10;;;19.50;93.60;;;;;;5083668;28;20625;-73
2023/09/06 08:12:06;;;;;;;4.80;4.23;;;19.40;93.40;;;;;;5083142;28;20636;-73
2023/09/06 08:14:33;;;;;;;7.27;4.00;;;19.60;93.30;;;;;;5083647;28;20686;-74
2023/09/06 08:17:00;;;;;;;7.30;5.33;;;19.80;93.40;;;;;;5084132;28;20646;-72
2023/09/06 08:19:27;;;;;;;4.40;4.00;;;19.80;93.40;;;;;;5082779;28;20987;-73
2023/09/06 08:21:54;;;;;;;5.50;5.00;;;20.10;93.30;;;;;;5083809;28;20651;-72
2023/09/06 08:24:21;;;;;;;6.00;4.20;;;20.10;93.30;;;;;;5081022;28;21243;-73
2023/09/06 08:26:48;;;;;;;5.37;4.37;;;20.20;93.10;;;;;;5083639;28;21624;-73
2023/09/06 08:29:16;;;;;;;6.23;5.10;;;20.40;92.40;;;;;;5086308;28;21543;-72
2023/09/06 08:31:43;;;;;;;5.33;4.50;;;20.50;92.20;;;;;;5087499;28;20631;-73
2023/09/06 08:34:11;;;;;;;5.77;5.23;;;20.70;92.30;;;;;;5088760;28;20660;-72
2023/09/06 08:36:38;;;;;;;5.57;4.40;;;20.60;91.60;;;;;;5088462;28;21083;-72
2023/09/06 08:39:06;;;;;;;6.30;4.63;;;20.60;91.70;;;;;;5087900;28;20668;-73
2023/09/06 08:41:33;;;;;;;4.90;4.07;;;20.70;91.50;;;;;;5087263;28;22159;-73
2023/09/06 08:44:06;;;;;;;5.80;5.00;;;20.80;91.40;;;;;;5088593;28;20669;-73
2023/09/06 08:46:38;;;;;;;6.00;4.90;;;21.00;91.80;;;;;;5082080;28;20770;-73
2023/09/06 08:49:05;;;;;;;4.73;4.33;;;21.00;91.50;;;;;;5078785;28;20627;-74
2023/09/06 08:51:35;;;;;;;5.53;4.50;;;21.10;91.00;;;;;;5083630;28;21260;-73
2023/09/06 08:54:04;;;;;;;5.70;4.40;;;21.20;91.40;;;;;;5087361;28;21307;-72
2023/09/06 08:56:32;;;;;;;7.90;4.57;;;21.30;91.20;;;;;;5087976;28;20629;-72
2023/09/06 08:58:59;;;;;;;4.57;4.13;;;21.30;89.80;;;;;;5088187;28;20631;-74
2023/09/06 09:01:26;;;;;;;7.53;4.60;;;21.40;87.00;;;;;;5087882;28;20635;-73
2023/09/06 09:03:54;;;;;;;5.03;3.70;;;21.50;87.30;;;;;;5088430;28;20623;-73
2023/09/06 09:06:20;;;;;;;5.27;4.23;;;21.50;86.60;;;;;;5088773;28;20642;-73
2023/09/06 09:08:47;;;;;;;4.60;4.20;;;21.50;86.60;;;;;;5087309;28;20640;-73
2023/09/06 09:11:16;;;;;;;6.07;4.23;;;21.40;88.90;;;;;;5087600;28;21238;-73
2023/09/06 09:13:44;;;;;;;4.60;4.17;;;21.50;88.50;;;;;;5088872;28;20663;-73
2023/09/06 09:16:12;;;;;;;4.80;4.40;;;21.60;88.70;;;;;;5087688;28;20708;-73
2023/09/06 09:18:41;;;;;;;4.23;3.80;;;21.60;89.60;;;;;;5088471;28;21063;-72
2023/09/06 09:21:11;;;;;;;4.37;3.97;;;21.80;89.50;;;;;;5087121;28;20622;-72
2023/09/06 09:23:44;;;;;;;4.80;4.40;;;22.00;90.30;;;;;;5087098;28;20708;-72
2023/09/06 09:26:11;;;;;;;5.80;4.83;;;22.10;90.10;;;;;;5088068;28;21652;-72
2023/09/06 09:28:41;;;;;;;4.30;3.90;;;22.20;88.40;;;;;;5087003;28;21455;-73
2023/09/06 09:31:11;;;;;;;4.03;3.73;;;22.10;89.90;;;;;;5087286;28;20638;-72
2023/09/06 09:33:39;;;;;;;4.50;4.10;;;22.20;88.70;;;;;;5085727;28;21316;-72
2023/09/06 09:36:07;;;;;;;5.03;3.97;;;22.30;87.90;;;;;;5086736;28;20739;-72
2023/09/06 09:38:35;;;;;;;5.07;3.50;;;22.30;87.70;;;;;;5087547;28;20728;-72
2023/09/06 09:41:06;;;;;;;10.97;4.50;;;22.50;87.00;;;;;;5087388;28;20627;-72
2023/09/06 09:43:34;;;;;;;4.40;4.00;;;22.70;85.50;;;;;;5087841;28;20630;-72
2023/09/06 09:46:02;;;;;;;5.60;4.73;;;22.70;86.00;;;;;;5087221;28;20630;-72
2023/09/06 09:48:30;;;;;;;5.57;4.30;;;22.80;87.40;;;;;;5087680;28;21043;-72
2023/09/06 09:50:58;;;;;;;4.30;4.00;;;22.80;86.90;;;;;;5085646;28;20984;-72
2023/09/06 09:53:25;;;;;;;3.73;3.43;;;22.90;86.80;;;;;;5086722;28;21288;-72
2023/09/06 09:55:56;;;;;;;4.00;3.70;;;22.90;87.80;;;;;;5087758;28;20620;-72
2023/09/06 09:58:23;;;;;;;5.80;4.17;;;23.10;86.50;;;;;;5086071;28;20628;-73
2023/09/06 10:00:51;;;;;;;6.37;4.33;;;23.30;85.80;;;;;;5086270;28;20629;-73
2023/09/06 10:03:18;;;;;;;4.90;4.40;;;23.30;85.40;;;;;;5087547;28;20625;-73
2023/09/06 10:05:47;;;;;;;4.30;4.00;;;23.40;84.80;;;;;;5086400;28;21215;-73
2023/09/06 10:08:17;;;;;;;6.60;4.30;;;23.40;85.20;;;;;;5086533;28;20626;-73
2023/09/06 10:10:44;;;;;;;4.70;4.30;;;23.40;86.20;;;;;;5086316;28;20633;-73
2023/09/06 10:13:15;;;;;;;4.90;4.40;;;23.50;85.60;;;;;;5086619;28;20622;-72
2023/09/06 10:15:44;;;;;;;5.07;4.23;;;23.70;84.40;;;;;;5086010;28;20633;-73
2023/09/06 10:18:11;;;;;;;9.60;4.77;;;23.70;84.30;;;;;;5084899;28;20610;-72
2023/09/06 10:20:39;;;;;;;6.53;5.00;;;23.80;85.20;;;;;;5083646;28;21245;-72
2023/09/06 10:23:07;;;;;;;4.40;4.00;;;23.90;83.00;;;;;;5083563;28;20638;-73
2023/09/06 10:25:40;;;;;;;4.70;4.17;;;23.80;81.00;;;;;;5084263;28;21206;-73
2023/09/06 10:28:07;;;;;;;6.00;4.90;;;24.00;82.70;;;;;;5085082;28;20635;-72
2023/09/06 10:30:44;;;;;;;4.57;3.67;;;24.00;81.60;;;;;;5084916;28;21084;-72
2023/09/06 10:33:11;;;;;;;6.00;4.47;;;24.00;80.70;;;;;;5084883;28;20623;-73
2023/09/06 10:35:42;;;;;;;4.90;4.40;;;24.00;80.70;;;;;;5085322;28;20619;-72
2023/09/06 10:38:14;;;;;;;4.87;4.47;;;24.10;84.50;;;;;;5085474;28;20638;-72
2023/09/06 10:41:10;;;;;;;4.60;3.90;;;24.20;83.80;;;;;;5083563;28;21034;-72
2023/09/06 10:43:55;;;;;;;5.10;4.60;;;24.40;81.10;;;;;;5084613;28;20631;-72
2023/09/06 10:46:27;;;;;;;4.70;4.30;;;24.50;82.70;;;;;;5085752;28;20729;-72
2023/09/06 10:49:13;;;;;;;5.43;4.50;;;24.60;83.60;;;;;;5084894;28;20622;-72
2023/09/06 10:52:03;;;;;;;5.17;4.53;;;24.90;82.20;;;;;;5086046;28;20799;-72
2023/09/06 10:54:35;;;;;;;5.27;4.77;;;24.80;81.30;;;;;;5085624;28;21355;-72
2023/09/06 10:57:03;;;;;;;6.27;5.07;;;24.90;81.70;;;;;;5083614;28;21267;-73
2023/09/06 10:59:31;;;;;;;5.03;4.63;;;24.90;81.50;;;;;;5084675;28;21658;-73
2023/09/06 11:02:26;;;;;;;4.93;4.53;;;25.00;81.80;;;;;;5079603;28;22142;-72
2023/09/06 11:05:05;;;;;;;8.27;4.93;;;25.00;82.80;;;;;;5085966;28;20824;-73
2023/09/06 11:07:39;;;;;;;7.40;4.80;;;25.20;81.90;;;;;;5085184;28;20658;-73
2023/09/06 11:10:07;;;;;;;5.40;4.83;;;25.30;83.20;;;;;;5083908;28;20627;-74
2023/09/06 11:12:35;;;;;;;5.17;4.77;;;25.50;82.40;;;;;;5084006;28;20634;-73
2023/09/06 11:15:02;;;;;;;5.13;4.63;;;25.60;79.90;;;;;;5085208;28;21242;-73
2023/09/06 11:17:30;;;;;;;5.00;4.40;;;25.60;80.80;;;;;;5086379;28;20636;-74
2023/09/06 11:20:09;;;;;;;3.80;3.50;;;25.60;79.50;;;;;;5084636;28;21264;-73
2023/09/06 11:22:36;;;;;;;6.73;5.43;;;25.80;78.70;;;;;;5084039;28;21102;-73
2023/09/06 11:25:15;;;;;;;4.53;4.17;;;25.80;79.30;;;;;;5084892;28;20635;-74
2023/09/06 11:27:42;;;;;;;4.93;4.53;;;25.90;77.30;;;;;;5084940;28;21234;-73
2023/09/06 11:30:15;;;;;;;5.13;3.90;;;26.10;76.90;;;;;;5084690;28;20987;-73
2023/09/06 11:32:44;;;;;;;6.30;4.97;;;26.10;77.90;;;;;;5083937;28;20638;-73
2023/09/06 11:35:13;;;;;;;4.27;3.90;;;26.30;78.70;;;;;;5085411;28;20994;-74
2023/09/06 11:37:44;;;;;;;5.10;4.30;;;26.50;77.20;;;;;;5085075;28;20635;-74
2023/09/06 11:40:14;;;;;;;5.73;5.23;;;26.70;77.60;;;;;;5084952;28;21090;-73
2023/09/06 11:42:42;;;;;;;5.60;5.00;;;27.00;76.60;;;;;;5086056;28;20634;-74
2023/09/06 11:45:12;;;;;;;4.73;4.13;;;27.30;74.90;;;;;;5085623;28;20773;-74
2023/09/06 11:47:39;;;;;;;5.30;4.80;;;27.50;72.00;;;;;;5085202;28;20624;-74
2023/09/06 11:50:11;;;;;;;5.60;5.00;;;27.70;70.70;;;;;;5084947;28;20624;-73
2023/09/06 11:52:39;;;;;;;5.07;4.67;;;27.50;71.40;;;;;;5084958;28;20629;-74
2023/09/06 11:55:09;;;;;;;5.20;4.80;;;27.50;72.40;;;;;;5085056;28;20635;-74
2023/09/06 11:57:37;;;;;;;4.73;4.30;;;27.40;72.40;;;;;;5084092;28;20643;-74
2023/09/06 12:00:17;;;;;;;4.90;4.33;;;26.90;74.50;;;;;;5083905;28;20622;-74
2023/09/06 12:02:47;;;;;;;4.00;3.70;;;26.80;73.20;;;;;;5085445;28;20655;-74
2023/09/06 12:05:16;;;;;;;4.80;4.40;;;26.50;72.80;;;;;;5090457;28;20636;-74
2023/09/06 12:07:44;;;;;;;4.43;3.80;;;26.30;76.10;;;;;;5088694;28;21253;-74
2023/09/06 12:10:11;;;;;;;4.97;4.47;;;26.50;75.50;;;;;;5089553;28;20628;-74
2023/09/06 12:12:41;;;;;;;5.30;4.80;;;26.30;76.60;;;;;;5087266;28;20615;-74
2023/09/06 12:15:14;;;;;;;5.43;4.60;;;26.30;76.10;;;;;;5090244;27;21734;-74
2023/09/06 12:17:43;;;;;;;6.20;4.57;;;26.20;75.90;;;;;;5089628;28;20747;-73
2023/09/06 12:20:18;;;;;;;4.83;4.33;;;26.10;76.20;;;;;;5088260;28;20644;-73
2023/09/06 12:22:45;;;;;;;4.93;4.30;;;26.20;73.40;;;;;;5089697;28;20632;-74
2023/09/06 12:25:13;;;;;;;5.20;4.47;;;26.10;74.10;;;;;;5088593;28;20642;-74
2023/09/06 12:27:40;;;;;;;4.87;4.47;;;26.00;72.90;;;;;;5089321;28;20646;-73
2023/09/06 12:30:09;;;;;;;4.70;4.30;;;26.00;72.60;;;;;;5087664;28;20624;-73
2023/09/06 12:32:37;;;;;;;4.40;4.00;;;26.00;75.10;;;;;;5089205;28;20636;-73
2023/09/06 12:35:05;;;;;;;4.90;4.40;;;26.00;72.40;;;;;;5089193;28;20696;-73
2023/09/06 12:37:35;;;;;;;4.93;4.43;;;26.00;74.10;;;;;;5088175;28;20788;-73
2023/09/06 12:40:05;;;;;;;4.57;4.00;;;26.00;75.10;;;;;;5089196;28;20619;-73
2023/09/06 12:42:32;;;;;;;4.07;3.70;;;26.00;76.20;;;;;;5088468;27;20720;-73
2023/09/06 12:45:01;;;;;;;5.13;4.30;;;26.10;75.50;;;;;;5089246;28;21266;-74
2023/09/06 12:47:27;;;;;;;4.23;3.90;;;26.10;73.50;;;;;;5087198;28;20631;-73
2023/09/06 12:49:55;;;;;;;4.43;3.90;;;26.10;73.50;;;;;;5087768;28;20634;-73
2023/09/06 12:52:22;;;;;;;6.20;4.47;;;26.10;75.80;;;;;;5088073;28;20634;-74
2023/09/06 12:54:50;;;;;;;12.20;4.37;;;26.20;72.60;;;;;;5086553;28;20660;-74